This is the latest recevied weather packets stored in our database for station/object OE-11307. If no packets are shown the sender has not sent any weather packets the latest 10 day(s).
| Time | Temp. | Humidity | Pressure | Rain* | Wind** | Luminosity | Snow |
|---|---|---|---|---|---|---|---|
| 1787877314 | 19.44° C | 60% | 852.3 hPa | 0 mm | - | 0 W/m² | - |
| 1787876714 | 18.89° C | 64% | 852.4 hPa | 0 mm | - | 0 W/m² | - |
| 1787875886 | 18.33° C | 65% | 852.4 hPa | 0 mm | - | 0 W/m² | - |
| 1787875513 | 19.44° C | 61% | 852.5 hPa | 0 mm | - | 0 W/m² | - |
| 1787874914 | 19.44° C | 61% | 852.6 hPa | 0 mm | - | 0 W/m² | - |
| 1787874086 | 18.89° C | 64% | 852.5 hPa | 0 mm | - | 0 W/m² | - |
| 1787873714 | 19.44° C | 62% | 852.5 hPa | 0 mm | - | 0 W/m² | - |
| 1787873113 | 18.33° C | 66% | 852.7 hPa | 0 mm | - | 0 W/m² | - |
| 1787872514 | 19.44° C | 62% | 852.6 hPa | 0 mm | - | 0 W/m² | - |
| 1787871913 | 18.89° C | 63% | 852.7 hPa | 0 mm | - | 0 W/m² | - |
| 1787870487 | 18.89° C | 62% | 852.9 hPa | 0 mm | - | 0 W/m² | - |
| 1787870114 | 18.89° C | 62% | 852.9 hPa | 0 mm | - | 0 W/m² | - |
| 1787869514 | 18.89° C | 63% | 852.9 hPa | 0 mm | - | 0 W/m² | - |
| 1787868687 | 18.89° C | 64% | 852.8 hPa | 0 mm | - | 0 W/m² | - |
| 1787868313 | 18.89° C | 63% | 852.9 hPa | 0 mm | - | 0 W/m² | - |
| 1787867714 | 18.33° C | 66% | 852.9 hPa | 0 mm | - | 0 W/m² | - |
| 1787866887 | 18.89° C | 63% | 853 hPa | 0 mm | - | 0 W/m² | - |
| 1787866513 | 19.44° C | 60% | 853.1 hPa | 0 mm | - | 0 W/m² | - |
| 1787865914 | 18.89° C | 63% | 853.3 hPa | 0 mm | - | 0 W/m² | - |
| 1787865088 | 19.44° C | 60% | 853.3 hPa | 0 mm | - | 0 W/m² | - |
| 1787864713 | 18.89° C | 63% | 853.4 hPa | 0 mm | - | 0 W/m² | - |
| 1787864113 | 19.44° C | 59% | 853.4 hPa | 0 mm | - | 0 W/m² | - |
| 1787863287 | 18.33° C | 66% | 853.4 hPa | 0 mm | - | 0 W/m² | - |
| 1787862914 | 18.89° C | 62% | 853.4 hPa | 0 mm | - | 0 W/m² | - |
| 1787862314 | 19.44° C | 61% | 853.1 hPa | 0 mm | - | 0 W/m² | - |
* Rain latest hour (hover to see other rain measurements)
** Current wind speed in m/s (hover to see current wind gust speed)